This is the latest recevied weather packets stored in our database for station/object OK2ILA-13. If no packets are shown the sender has not sent any weather packets the latest 10 day(s).
| Time | Temp. | Humidity | Pressure | Rain* | Wind** | Luminosity | Snow |
|---|---|---|---|---|---|---|---|
| 1788510566 | 20.56° C | 60% | 1018.6 hPa | - | - | - | - |
| 1788509965 | 20° C | 63% | 1019 hPa | - | - | - | - |
| 1788509366 | 20° C | 63% | 1018.9 hPa | - | - | - | - |
| 1788508766 | 20° C | 63% | 1018.9 hPa | - | - | - | - |
| 1788507565 | 18.89° C | 65% | 1018.9 hPa | - | - | - | - |
| 1788506966 | 19.44° C | 63% | 1018.8 hPa | - | - | - | - |
| 1788506366 | 19.44° C | 65% | 1018.8 hPa | - | - | - | - |
| 1788505766 | 18.33° C | 66% | 1019 hPa | - | - | - | - |
| 1788505166 | 18.33° C | 67% | 1018.9 hPa | - | - | - | - |
| 1788503965 | 17.22° C | 72% | 1018.9 hPa | - | - | - | - |
| 1788503365 | 16.67° C | 73% | 1018.9 hPa | - | - | - | - |
| 1788502765 | 16.11° C | 75% | 1018.9 hPa | - | - | - | - |
| 1788502165 | 15.56° C | 79% | 1018.8 hPa | - | - | - | - |
| 1788501566 | 15° C | 81% | 1018.8 hPa | - | - | - | - |
| 1788500965 | 14.44° C | 82% | 1018.6 hPa | - | - | - | - |
| 1788500365 | 14.44° C | 82% | 1018.6 hPa | - | - | - | - |
| 1788499765 | 13.89° C | 82% | 1018.6 hPa | - | - | - | - |
| 1788499166 | 13.89° C | 82% | 1018.5 hPa | - | - | - | - |
| 1788498566 | 14.44° C | 82% | 1018.3 hPa | - | - | - | - |
| 1788497966 | 14.44° C | 83% | 1018.4 hPa | - | - | - | - |
| 1788497367 | 13.89° C | 83% | 1018.4 hPa | - | - | - | - |
| 1788496767 | 13.89° C | 82% | 1018.5 hPa | - | - | - | - |
| 1788496167 | 13.89° C | 83% | 1018.6 hPa | - | - | - | - |
| 1788495567 | 14.44° C | 82% | 1018.5 hPa | - | - | - | - |
| 1788494967 | 14.44° C | 82% | 1018.3 hPa | - | - | - | - |
* Rain since midnight (hover to see other rain measurements)
** Current wind speed in m/s (hover to see current wind gust speed)